createdAt,value
2023-02-18T00:01:39.489Z,98488.38
2023-02-18T00:04:07.137Z,98479.69
2023-02-18T00:06:36.480Z,98480.16
2023-02-18T00:09:06.205Z,98479.53
2023-02-18T00:11:36.402Z,98478.38
2023-02-18T00:14:07.666Z,98489.59
2023-02-18T00:16:35.197Z,98476.88
2023-02-18T00:19:05.989Z,98484.06
2023-02-18T00:21:35.832Z,98472.50
2023-02-18T00:24:08.674Z,98478.06
2023-02-18T00:26:36.622Z,98477.03
2023-02-18T00:29:04.614Z,98473.34
2023-02-18T00:31:36.577Z,98475.03
2023-02-18T00:34:05.685Z,98470.16
2023-02-18T00:36:35.258Z,98469.50
2023-02-18T00:39:09.367Z,98462.66
2023-02-18T00:41:37.823Z,98467.84
2023-02-18T00:44:06.266Z,98464.50
2023-02-18T00:46:35.725Z,98461.69
2023-02-18T00:49:04.763Z,98463.69
2023-02-18T00:51:32.811Z,98477.75
2023-02-18T00:54:00.607Z,98455.31
2023-02-18T00:56:28.232Z,98456.16
2023-02-18T00:58:55.861Z,98463.19
2023-02-18T01:01:24.205Z,98459.31
2023-02-18T01:03:51.794Z,98461.00
2023-02-18T01:06:19.773Z,98462.69
2023-02-18T01:08:49.718Z,98461.94
2023-02-18T01:11:17.650Z,98465.63
2023-02-18T01:13:46.693Z,98459.97
2023-02-18T01:16:14.377Z,98463.44
2023-02-18T01:18:41.931Z,98459.63
2023-02-18T01:21:10.176Z,98458.13
2023-02-18T01:23:40.326Z,98446.72
2023-02-18T01:26:10.022Z,98458.63
2023-02-18T01:28:40.959Z,98466.63
2023-02-18T01:31:12.629Z,98457.59
2023-02-18T01:33:41.118Z,98460.16
2023-02-18T01:36:10.895Z,98461.53
2023-02-18T01:38:38.746Z,98451.97
2023-02-18T01:41:06.657Z,98447.44
2023-02-18T01:43:34.778Z,98456.47
2023-02-18T01:46:22.234Z,98445.59
2023-02-18T01:48:57.469Z,98447.28
2023-02-18T01:51:34.222Z,98446.78
2023-02-18T01:54:18.485Z,98445.44
2023-02-18T01:57:01.684Z,98445.22
2023-02-18T01:59:39.456Z,98445.56
2023-02-18T02:02:13.104Z,98453.59
2023-02-18T02:04:41.552Z,98435.34
2023-02-18T02:07:10.652Z,98449.25
2023-02-18T02:09:40.353Z,98443.91
2023-02-18T02:12:33.466Z,98451.56
2023-02-18T02:15:09.797Z,98448.75
2023-02-18T02:18:09.433Z,98440.72
2023-02-18T02:21:11.805Z,98438.84
2023-02-18T02:24:01.741Z,98446.72
2023-02-18T02:27:01.307Z,98447.56
2023-02-18T02:29:51.252Z,98446.22
2023-02-18T02:32:35.750Z,98437.00
2023-02-18T02:35:24.933Z,98441.75
2023-02-18T02:38:14.741Z,98430.66
2023-02-18T02:40:56.861Z,98438.72
2023-02-18T02:44:10.681Z,98423.28
2023-02-18T02:46:45.961Z,98427.84
2023-02-18T02:49:37.771Z,98429.63
2023-02-18T02:52:33.162Z,98427.13
2023-02-18T02:55:03.544Z,98422.94
2023-02-18T02:57:30.989Z,98429.63
2023-02-18T03:00:10.463Z,98428.13
2023-02-18T03:03:12.686Z,98421.97
2023-02-18T03:06:27.272Z,98432.81
2023-02-18T03:09:09.507Z,98418.09
2023-02-18T03:11:52.367Z,98403.38
2023-02-18T03:14:36.230Z,98403.34
2023-02-18T03:17:15.373Z,98404.06
2023-02-18T03:19:52.670Z,98400.56
2023-02-18T03:22:37.843Z,98396.84
2023-02-18T03:25:07.464Z,98392.97
2023-02-18T03:27:53.334Z,98396.50
2023-02-18T03:30:36.984Z,98405.25
2023-02-18T03:33:09.597Z,98410.91
2023-02-18T03:35:39.218Z,98395.16
2023-02-18T03:38:31.806Z,98395.03
2023-02-18T03:40:59.596Z,98405.88
2023-02-18T03:43:27.174Z,98405.88
2023-02-18T03:45:54.949Z,98414.09
2023-02-18T03:48:23.012Z,98405.38
2023-02-18T03:50:53.214Z,98405.88
2023-02-18T03:53:20.853Z,98410.75
2023-02-18T03:55:48.550Z,98400.84
2023-02-18T03:58:16.137Z,98404.22
2023-02-18T04:00:43.655Z,98403.22
2023-02-18T04:03:11.221Z,98407.06
2023-02-18T04:05:38.765Z,98397.31
2023-02-18T04:08:06.328Z,98403.19
2023-02-18T04:10:33.967Z,98387.59
2023-02-18T04:13:01.636Z,98391.47
2023-02-18T04:15:29.446Z,98371.84
2023-02-18T04:17:57.054Z,98378.03
2023-02-18T04:20:24.604Z,98377.53
2023-02-18T04:22:52.150Z,98382.75
2023-02-18T04:25:19.712Z,98384.31
2023-02-18T04:27:47.394Z,98375.53
2023-02-18T04:30:16.778Z,98382.03
2023-02-18T04:32:46.053Z,98383.03
2023-02-18T04:35:14.065Z,98380.03
2023-02-18T04:37:41.739Z,98378.00
2023-02-18T04:40:09.784Z,98379.19
2023-02-18T04:42:37.383Z,98381.53
2023-02-18T04:45:05.372Z,98387.88
2023-02-18T04:47:32.969Z,98378.34
2023-02-18T04:50:00.556Z,98373.16
2023-02-18T04:52:28.180Z,98377.22
2023-02-18T04:54:55.729Z,98370.00
2023-02-18T04:57:23.328Z,98369.34
2023-02-18T04:59:50.865Z,98373.69
2023-02-18T05:02:18.468Z,98361.13
2023-02-18T05:04:46.034Z,98372.00
2023-02-18T05:07:13.716Z,98373.69
2023-02-18T05:09:41.221Z,98376.69
2023-02-18T05:12:09.048Z,98371.66
2023-02-18T05:14:36.551Z,98365.97
2023-02-18T05:17:04.119Z,98377.44
2023-02-18T05:19:31.621Z,98361.66
2023-02-18T05:21:59.159Z,98367.84
2023-02-18T05:24:26.682Z,98359.81
2023-02-18T05:26:54.251Z,98367.16
2023-02-18T05:29:21.804Z,98348.94
2023-02-18T05:31:49.525Z,98360.00
2023-02-18T05:34:17.311Z,98374.22
2023-02-18T05:36:44.837Z,98351.59
2023-02-18T05:39:12.381Z,98354.06
2023-02-18T05:41:39.956Z,98363.78
2023-02-18T05:44:25.861Z,98360.94
2023-02-18T05:46:53.421Z,98375.53
2023-02-18T05:49:21.245Z,98359.50
2023-02-18T05:51:48.852Z,98360.50
2023-02-18T05:54:16.559Z,98359.78
2023-02-18T05:56:44.132Z,98356.09
2023-02-18T05:59:11.782Z,98366.00
2023-02-18T06:01:39.318Z,98363.44
2023-02-18T06:04:06.996Z,98360.66
2023-02-18T06:06:35.807Z,98360.00
2023-02-18T06:09:04.697Z,98362.47
2023-02-18T06:11:32.837Z,98363.63
2023-02-18T06:14:00.773Z,98359.91
2023-02-18T06:16:28.857Z,98350.31
2023-02-18T06:18:56.892Z,98349.81
2023-02-18T06:21:24.739Z,98346.13
2023-02-18T06:23:52.425Z,98353.50
2023-02-18T06:26:20.041Z,98354.50
2023-02-18T06:28:47.681Z,98345.41
2023-02-18T06:31:15.359Z,98356.47
2023-02-18T06:33:42.949Z,98350.44
2023-02-18T06:36:13.105Z,98352.44
2023-02-18T06:38:43.441Z,98360.16
2023-02-18T06:41:12.375Z,98364.31
2023-02-18T06:43:40.444Z,98383.09
2023-02-18T06:46:08.674Z,98374.09
2023-02-18T06:48:36.429Z,98372.03
2023-02-18T06:51:04.442Z,98372.25
2023-02-18T06:53:31.943Z,98354.59
2023-02-18T06:55:59.449Z,98359.16
2023-02-18T06:58:27.715Z,98353.91
2023-02-18T07:00:55.259Z,98356.38
2023-02-18T07:03:22.909Z,98353.03
2023-02-18T07:05:50.442Z,98356.88
2023-02-18T07:08:18.635Z,98351.34
2023-02-18T07:10:46.871Z,98353.69
2023-02-18T07:13:14.722Z,98358.19
2023-02-18T07:15:42.236Z,98350.47
2023-02-18T07:18:09.805Z,98367.22
2023-02-18T07:20:37.317Z,98341.75
2023-02-18T07:23:04.854Z,98355.50
2023-02-18T07:25:32.354Z,98341.09
2023-02-18T07:27:59.876Z,98338.47
2023-02-18T07:30:27.455Z,98330.34
2023-02-18T07:32:54.984Z,98333.69
2023-02-18T07:35:22.637Z,98332.72
2023-02-18T07:37:51.068Z,98328.81
2023-02-18T07:40:21.608Z,98337.22
2023-02-18T07:42:49.606Z,98338.53
2023-02-18T07:45:17.321Z,98324.44
2023-02-18T07:47:45.543Z,98321.91
2023-02-18T07:50:13.095Z,98325.78
2023-02-18T07:52:40.736Z,98327.91
2023-02-18T07:55:09.032Z,98330.06
2023-02-18T07:57:56.548Z,98323.50
2023-02-18T08:00:24.363Z,98327.09
2023-02-18T08:02:51.942Z,98333.66
2023-02-18T08:05:19.555Z,98339.50
2023-02-18T08:07:47.097Z,98326.91
2023-02-18T08:10:14.591Z,98348.59
2023-02-18T08:12:42.103Z,98332.00
2023-02-18T08:15:09.901Z,98346.41
2023-02-18T08:17:37.443Z,98339.38
2023-02-18T08:20:06.234Z,98329.38
2023-02-18T08:22:33.744Z,98324.66
2023-02-18T08:25:01.260Z,98321.09
2023-02-18T08:27:28.806Z,98319.72
2023-02-18T08:29:56.322Z,98320.41
2023-02-18T08:32:28.710Z,98318.03
2023-02-18T08:34:56.832Z,98316.16
2023-02-18T08:37:24.518Z,98321.81
2023-02-18T08:39:52.264Z,98314.16
2023-02-18T08:42:19.793Z,98308.06
2023-02-18T08:44:47.405Z,98308.72
2023-02-18T08:48:18.330Z,98311.31
2023-02-18T08:50:02.456Z,98313.19
2023-02-18T08:52:30.028Z,98310.81
2023-02-18T08:54:57.597Z,98310.25
2023-02-18T08:57:25.118Z,98317.41
2023-02-18T08:59:52.662Z,98307.91
2023-02-18T09:02:20.248Z,98314.19
2023-02-18T09:04:47.788Z,98319.84
2023-02-18T09:07:15.289Z,98310.31
2023-02-18T09:09:42.814Z,98309.59
2023-02-18T09:12:10.382Z,98306.50
2023-02-18T09:14:37.911Z,98301.69
2023-02-18T09:17:05.442Z,98301.13
2023-02-18T09:19:32.941Z,98308.03
2023-02-18T09:22:00.848Z,98286.78
2023-02-18T09:24:28.500Z,98285.78
2023-02-18T09:26:56.033Z,98297.38
2023-02-18T09:29:23.579Z,98289.22
2023-02-18T09:31:51.207Z,98301.34
2023-02-18T09:34:18.830Z,98279.84
2023-02-18T09:36:46.336Z,98291.53
2023-02-18T09:39:13.948Z,98291.34
2023-02-18T09:41:51.405Z,98293.69
2023-02-18T09:44:21.789Z,98288.66
2023-02-18T09:47:05.330Z,98286.75
2023-02-18T09:49:38.144Z,98292.03
2023-02-18T09:52:33.341Z,98292.81
2023-02-18T09:55:21.354Z,98304.53
2023-02-18T09:58:00.958Z,98299.56
2023-02-18T10:00:46.137Z,98290.13
2023-02-18T10:03:21.657Z,98292.69
2023-02-18T10:06:10.518Z,98303.41
2023-02-18T10:08:42.712Z,98304.56
2023-02-18T10:11:36.744Z,98295.53
2023-02-18T10:14:10.924Z,98291.84
2023-02-18T10:16:38.504Z,98290.25
2023-02-18T10:19:37.492Z,98289.09
2023-02-18T10:22:08.685Z,98281.13
2023-02-18T10:24:52.275Z,98287.63
2023-02-18T10:27:37.129Z,98309.19
2023-02-18T10:30:34.402Z,98281.38
2023-02-18T10:33:33.391Z,98278.53
2023-02-18T10:36:24.615Z,98287.97
2023-02-18T10:39:38.552Z,98290.47
2023-02-18T10:42:38.937Z,98289.00
2023-02-18T10:45:40.162Z,98296.34
2023-02-18T10:48:50.656Z,98288.13
2023-02-18T10:51:24.415Z,98273.72
2023-02-18T10:53:53.490Z,98292.22
2023-02-18T10:56:42.087Z,98285.28
2023-02-18T10:59:33.432Z,98280.38
2023-02-18T11:02:18.424Z,98290.38
2023-02-18T11:04:46.631Z,98286.16
2023-02-18T11:07:23.171Z,98280.94
2023-02-18T11:09:56.007Z,98279.56
2023-02-18T11:12:28.958Z,98277.44
2023-02-18T11:15:14.515Z,98266.41
2023-02-18T11:17:45.351Z,98273.00
2023-02-18T11:20:36.352Z,98256.59
2023-02-18T11:23:06.730Z,98262.34
2023-02-18T11:25:40.611Z,98251.16
2023-02-18T11:28:44.140Z,98257.69
2023-02-18T11:31:31.164Z,98255.63
2023-02-18T11:34:03.037Z,98251.84
2023-02-18T11:36:35.046Z,98236.31
2023-02-18T11:39:26.444Z,98252.28
2023-02-18T11:42:14.029Z,98262.34
2023-02-18T11:44:56.433Z,98250.69
2023-02-18T11:47:27.995Z,98225.94
2023-02-18T11:50:20.760Z,98238.78
2023-02-18T11:52:51.049Z,98239.78
2023-02-18T11:55:23.018Z,98238.19
2023-02-18T11:58:03.796Z,98257.13
2023-02-18T12:00:51.724Z,98242.53
2023-02-18T12:03:49.936Z,98251.50
2023-02-18T12:06:44.468Z,98231.25
2023-02-18T12:09:35.084Z,98231.41
2023-02-18T12:12:33.397Z,98250.28
2023-02-18T12:15:01.192Z,98223.63
2023-02-18T12:18:01.656Z,98231.84
2023-02-18T12:20:59.431Z,98210.44
2023-02-18T12:24:04.234Z,98236.63
2023-02-18T12:27:04.830Z,98225.53
2023-02-18T12:29:54.430Z,98224.78
2023-02-18T12:32:53.899Z,98238.34
2023-02-18T12:36:00.098Z,98221.75
2023-02-18T12:39:01.481Z,98216.50
2023-02-18T12:42:05.983Z,98216.44
2023-02-18T12:45:14.934Z,98218.66
2023-02-18T12:48:19.952Z,98211.94
2023-02-18T12:51:56.382Z,98212.59
2023-02-18T12:54:49.054Z,98217.53
2023-02-18T12:57:48.011Z,98203.13
2023-02-18T13:00:31.129Z,98212.09
2023-02-18T13:03:50.883Z,98196.25
2023-02-18T13:06:48.796Z,98231.84
2023-02-18T13:09:43.025Z,98206.44
2023-02-18T13:12:38.813Z,98208.38
2023-02-18T13:15:37.026Z,98191.88
2023-02-18T13:18:14.730Z,98194.47
2023-02-18T13:21:00.921Z,98191.63
2023-02-18T13:23:35.701Z,98173.91
2023-02-18T13:26:09.728Z,98170.34
2023-02-18T13:29:00.737Z,98182.16
2023-02-18T13:32:00.653Z,98162.25
2023-02-18T13:34:46.118Z,98171.19
2023-02-18T13:37:27.349Z,98181.16
2023-02-18T13:39:58.114Z,98161.22
2023-02-18T13:42:31.615Z,98167.88
2023-02-18T13:44:59.092Z,98165.53
2023-02-18T13:47:45.913Z,98160.28
2023-02-18T13:50:26.481Z,98167.22
2023-02-18T13:53:09.276Z,98148.44
2023-02-18T13:56:05.485Z,98154.81
2023-02-18T13:58:42.758Z,98143.72
2023-02-18T14:01:13.143Z,98136.16
2023-02-18T14:03:43.354Z,98141.72
2023-02-18T14:06:28.682Z,98140.38
2023-02-18T14:09:25.036Z,98142.66
2023-02-18T14:12:26.529Z,98159.59
2023-02-18T14:14:54.074Z,98147.16
2023-02-18T14:17:21.466Z,98150.97
2023-02-18T14:20:00.901Z,98144.09
2023-02-18T14:22:39.442Z,98136.69
2023-02-18T14:25:09.815Z,98139.38
2023-02-18T14:27:38.911Z,98130.50
2023-02-18T14:30:24.527Z,98134.00
2023-02-18T14:32:57.199Z,98137.53
2023-02-18T14:36:15.024Z,98129.59
2023-02-18T14:39:35.972Z,98143.91
2023-02-18T14:42:30.133Z,98142.16
2023-02-18T14:45:31.121Z,98142.44
2023-02-18T14:48:47.568Z,98141.88
2023-02-18T14:51:19.789Z,98136.13
2023-02-18T14:53:48.444Z,98134.34
2023-02-18T14:56:21.045Z,98130.72
2023-02-18T14:59:02.351Z,98138.25
2023-02-18T15:01:31.340Z,98134.00
2023-02-18T15:04:00.317Z,98132.53
2023-02-18T15:06:38.305Z,98146.44
2023-02-18T15:09:22.421Z,98138.75
2023-02-18T15:11:57.780Z,98148.38
2023-02-18T15:14:30.666Z,98143.75
2023-02-18T15:16:59.491Z,98144.22
2023-02-18T15:19:36.333Z,98149.38
2023-02-18T15:22:03.886Z,98165.66
2023-02-18T15:24:37.956Z,98151.63
2023-02-18T15:27:24.807Z,98143.75
2023-02-18T15:30:12.870Z,98138.28
2023-02-18T15:32:40.594Z,98142.38
2023-02-18T15:35:18.371Z,98136.41
2023-02-18T15:37:52.741Z,98149.50
2023-02-18T15:40:23.487Z,98147.16
2023-02-18T15:42:56.072Z,98148.94
2023-02-18T15:45:46.936Z,98145.97
2023-02-18T15:48:48.416Z,98136.25
2023-02-18T15:51:23.319Z,98142.81
2023-02-18T15:53:54.952Z,98141.03
2023-02-18T15:56:38.522Z,98127.50
2023-02-18T15:59:35.644Z,98130.75
2023-02-18T16:02:18.595Z,98132.06
2023-02-18T16:04:57.771Z,98133.16
2023-02-18T16:07:30.609Z,98140.94
2023-02-18T16:10:20.394Z,98134.91
2023-02-18T16:12:54.781Z,98134.75
2023-02-18T16:15:28.681Z,98124.13
2023-02-18T16:17:58.834Z,98124.75
2023-02-18T16:20:37.921Z,98110.19
2023-02-18T16:23:14.778Z,98111.97
2023-02-18T16:25:47.005Z,98124.81
2023-02-18T16:28:27.762Z,98129.81
2023-02-18T16:30:55.417Z,98113.72
2023-02-18T16:33:22.938Z,98119.63
2023-02-18T16:35:51.159Z,98115.66
2023-02-18T16:38:22.485Z,98121.38
2023-02-18T16:40:52.186Z,98119.47
2023-02-18T16:43:26.932Z,98112.03
2023-02-18T16:45:58.855Z,98118.00
2023-02-18T16:48:41.419Z,98126.00
2023-02-18T16:51:34.490Z,98125.19
2023-02-18T16:54:02.031Z,98133.41
2023-02-18T16:56:35.328Z,98126.19
2023-02-18T16:59:03.005Z,98136.03
2023-02-18T17:01:42.576Z,98141.75
2023-02-18T17:04:17.167Z,98143.94
2023-02-18T17:06:48.441Z,98143.47
2023-02-18T17:09:20.570Z,98145.34
2023-02-18T17:11:54.664Z,98153.69
2023-02-18T17:14:23.462Z,98144.47
2023-02-18T17:16:54.269Z,98168.38
2023-02-18T17:19:21.862Z,98164.25
2023-02-18T17:21:49.430Z,98153.25
2023-02-18T17:24:18.662Z,98156.97
2023-02-18T17:26:46.294Z,98166.25
2023-02-18T17:29:13.903Z,98165.41
2023-02-18T17:31:46.863Z,98157.66
2023-02-18T17:34:24.522Z,98163.88
2023-02-18T17:36:52.178Z,98167.38
2023-02-18T17:39:20.724Z,98158.97
2023-02-18T17:41:48.401Z,98174.28
2023-02-18T17:44:22.019Z,98174.78
2023-02-18T17:46:50.017Z,98182.47
2023-02-18T17:49:17.617Z,98184.16
2023-02-18T17:51:45.145Z,98187.84
2023-02-18T17:54:16.298Z,98187.03
2023-02-18T17:56:44.727Z,98195.91
2023-02-18T17:59:12.631Z,98196.31
2023-02-18T18:01:40.379Z,98192.97
2023-02-18T18:04:19.244Z,98191.63
2023-02-18T18:06:47.298Z,98203.00
2023-02-18T18:09:14.817Z,98207.22
2023-02-18T18:11:42.701Z,98210.41
2023-02-18T18:14:13.514Z,98209.56
2023-02-18T18:16:41.055Z,98210.41
2023-02-18T18:19:08.550Z,98224.97
2023-02-18T18:21:36.723Z,98218.63
2023-02-18T18:24:04.575Z,98231.84
2023-02-18T18:26:32.199Z,98225.81
2023-02-18T18:28:59.733Z,98231.47
2023-02-18T18:31:27.445Z,98236.69
2023-02-18T18:33:55.102Z,98222.31
2023-02-18T18:36:24.269Z,98229.16
2023-02-18T18:38:52.422Z,98234.84
2023-02-18T18:41:22.485Z,98230.19
2023-02-18T18:43:50.182Z,98242.03
2023-02-18T18:46:18.507Z,98243.38
2023-02-18T18:48:46.382Z,98246.22
2023-02-18T18:51:21.441Z,98249.41
2023-02-18T18:53:48.979Z,98238.84
2023-02-18T18:56:16.508Z,98259.28
2023-02-18T18:58:44.030Z,98244.88
2023-02-18T19:01:18.737Z,98253.06
2023-02-18T19:03:47.041Z,98250.38
2023-02-18T19:06:16.738Z,98260.91
2023-02-18T19:08:45.539Z,98252.53
2023-02-18T19:11:14.203Z,98257.41
2023-02-18T19:13:42.476Z,98256.06
2023-02-18T19:16:20.099Z,98254.22
2023-02-18T19:18:48.914Z,98269.63
2023-02-18T19:21:16.912Z,98261.59
2023-02-18T19:23:44.503Z,98267.50
2023-02-18T19:26:14.493Z,98263.91
2023-02-18T19:28:43.061Z,98269.97
2023-02-18T19:31:11.302Z,98273.75
2023-02-18T19:33:39.689Z,98266.13
2023-02-18T19:36:09.547Z,98260.59
2023-02-18T19:38:37.637Z,98272.84
2023-02-18T19:41:12.798Z,98266.28
2023-02-18T19:43:44.637Z,98259.91
2023-02-18T19:46:18.178Z,98264.13
2023-02-18T19:48:52.599Z,98258.56
2023-02-18T19:51:21.575Z,98261.44
2023-02-18T19:53:49.283Z,98255.44
2023-02-18T19:56:16.890Z,98256.94
2023-02-18T19:58:44.423Z,98254.59
2023-02-18T20:01:14.998Z,98253.91
2023-02-18T20:03:43.603Z,98263.91
2023-02-18T20:06:19.429Z,98260.59
2023-02-18T20:08:47.668Z,98282.19
2023-02-18T20:11:15.408Z,98259.03
2023-02-18T20:13:43.081Z,98273.44
2023-02-18T20:16:11.624Z,98264.75
2023-02-18T20:18:39.422Z,98271.47
2023-02-18T20:21:10.719Z,98271.47
2023-02-18T20:23:38.461Z,98277.28
2023-02-18T20:26:11.067Z,98264.72
2023-02-18T20:28:38.887Z,98272.59
2023-02-18T20:31:09.731Z,98257.72
2023-02-18T20:33:38.276Z,98265.25
2023-02-18T20:36:08.345Z,98258.19
2023-02-18T20:38:37.340Z,98258.00
2023-02-18T20:41:11.893Z,98261.91
2023-02-18T20:43:40.456Z,98258.06
2023-02-18T20:46:12.545Z,98267.59
2023-02-18T20:48:40.143Z,98256.72
2023-02-18T20:51:13.810Z,98256.25
2023-02-18T20:53:43.010Z,98252.41
2023-02-18T20:56:10.875Z,98247.75
2023-02-18T20:58:39.028Z,98255.63
2023-02-18T21:01:13.926Z,98249.59
2023-02-18T21:03:42.649Z,98252.75
2023-02-18T21:06:13.904Z,98251.69
2023-02-18T21:08:43.400Z,98259.38
2023-02-18T21:11:24.889Z,98261.00
2023-02-18T21:13:55.144Z,98254.38
2023-02-18T21:16:25.178Z,98260.53
2023-02-18T21:18:53.045Z,98254.38
2023-02-18T21:21:22.828Z,98257.34
2023-02-18T21:24:31.974Z,98266.56
2023-02-18T21:26:59.533Z,98265.63
2023-02-18T21:29:27.269Z,98261.47
2023-02-18T21:31:54.964Z,98262.69
2023-02-18T21:34:22.788Z,98266.69
2023-02-18T21:36:50.360Z,98259.03
2023-02-18T21:39:17.868Z,98257.53
2023-02-18T21:41:45.385Z,98249.50
2023-02-18T21:44:12.916Z,98252.97
2023-02-18T21:46:40.542Z,98258.47
2023-02-18T21:49:12.284Z,98258.00
2023-02-18T21:51:57.937Z,98250.28
2023-02-18T21:54:40.884Z,98247.84
2023-02-18T21:57:15.367Z,98257.88
2023-02-18T21:59:43.550Z,98252.81
2023-02-18T22:02:31.553Z,98251.13
2023-02-18T22:05:02.174Z,98250.16
2023-02-18T22:07:30.059Z,98251.19
2023-02-18T22:09:57.631Z,98255.19
2023-02-18T22:12:28.265Z,98252.16
2023-02-18T22:14:55.817Z,98246.13
2023-02-18T22:17:23.326Z,98244.78
2023-02-18T22:19:50.843Z,98248.00
2023-02-18T22:22:18.412Z,98250.69
2023-02-18T22:24:45.917Z,98242.44
2023-02-18T22:27:13.417Z,98240.81
2023-02-18T22:29:41.109Z,98239.16
2023-02-18T22:32:08.707Z,98233.16
2023-02-18T22:34:36.361Z,98229.00
2023-02-18T22:37:03.943Z,98226.50
2023-02-18T22:39:31.817Z,98227.69
2023-02-18T22:41:59.356Z,98218.19
2023-02-18T22:44:27.336Z,98217.16
2023-02-18T22:46:57.017Z,98215.50
2023-02-18T22:49:25.424Z,98213.50
2023-02-18T22:51:54.318Z,98214.00
2023-02-18T22:54:21.875Z,98211.66
2023-02-18T22:56:49.713Z,98213.66
2023-02-18T22:59:19.969Z,98210.31
2023-02-18T23:01:49.496Z,98204.28
2023-02-18T23:04:19.706Z,98207.78
2023-02-18T23:06:48.709Z,98207.78
2023-02-18T23:09:23.688Z,98198.13
2023-02-18T23:11:58.086Z,98194.28
2023-02-18T23:14:28.038Z,98186.75
2023-02-18T23:17:14.188Z,98191.44
2023-02-18T23:19:51.142Z,98184.09
2023-02-18T23:22:39.986Z,98183.94
2023-02-18T23:25:08.163Z,98189.63
2023-02-18T23:27:35.700Z,98183.94
2023-02-18T23:30:03.550Z,98184.94
2023-02-18T23:32:31.969Z,98188.47
2023-02-18T23:34:59.485Z,98179.09
2023-02-18T23:37:45.314Z,98174.25
2023-02-18T23:40:14.644Z,98172.22
2023-02-18T23:42:42.157Z,98168.06
2023-02-18T23:45:09.744Z,98172.59
2023-02-18T23:47:37.294Z,98166.38
2023-02-18T23:50:05.266Z,98165.38
2023-02-18T23:52:33.877Z,98161.88
2023-02-18T23:55:01.619Z,98161.22
2023-02-18T23:57:32.839Z,98159.38
